Ada, Kansas
Current Conditions -  °F | °C
As of 10:53 PM on Wednesday 22 Oct 2014 (Local Time) from KSLN Reporting Station
Overcast Overcast  
Wind Chill: 63°   Ceiling: 7500
Heat Index: 63°   Visibility: 10mi
Dew Point: 58°   Wind: 7mph
Humidity: 84%   Direction: 180°S
Pressure: 30.06"   Gusts: NA
Location:  39.1542°N, 97.5941°W
Report Text: KSLN 230353Z 18006KT 10SM OVC075 17/14 A3006 RMK AO2 SLP171 T01720144
Loading
Personal Weather Stations






























Interactive Weather Map
Tropical Storm Tracking
New forecast layout! Learn more

10-Day Weather Forecast

Advertisements
Track Severe Weather on mobile